sensor_id;sensor_type;location;lat;lon;timestamp;P1;durP1;ratioP1;P2;durP2;ratioP2
42200;SDS011;27869;51.442;7.540;2022-08-19T00:01:11;16.15;;;7.45;;
42200;SDS011;27869;51.442;7.540;2022-08-19T00:03:38;14.20;;;6.65;;
42200;SDS011;27869;51.442;7.540;2022-08-19T00:06:05;15.85;;;7.13;;
42200;SDS011;27869;51.442;7.540;2022-08-19T00:08:32;16.95;;;6.75;;
42200;SDS011;27869;51.442;7.540;2022-08-19T00:10:59;15.65;;;7.22;;
42200;SDS011;27869;51.442;7.540;2022-08-19T00:13:26;14.90;;;7.18;;
42200;SDS011;27869;51.442;7.540;2022-08-19T00:15:54;14.55;;;6.80;;
42200;SDS011;27869;51.442;7.540;2022-08-19T00:18:22;14.88;;;6.30;;
42200;SDS011;27869;51.442;7.540;2022-08-19T00:20:49;14.85;;;6.35;;
42200;SDS011;27869;51.442;7.540;2022-08-19T00:23:16;15.63;;;7.72;;
42200;SDS011;27869;51.442;7.540;2022-08-19T00:25:43;17.42;;;6.85;;
42200;SDS011;27869;51.442;7.540;2022-08-19T00:28:10;15.95;;;7.30;;
42200;SDS011;27869;51.442;7.540;2022-08-19T00:30:37;20.25;;;8.05;;
42200;SDS011;27869;51.442;7.540;2022-08-19T00:33:04;16.48;;;8.15;;
42200;SDS011;27869;51.442;7.540;2022-08-19T00:35:33;15.95;;;8.00;;
42200;SDS011;27869;51.442;7.540;2022-08-19T00:38:03;18.67;;;9.23;;
42200;SDS011;27869;51.442;7.540;2022-08-19T00:40:31;17.58;;;8.73;;
42200;SDS011;27869;51.442;7.540;2022-08-19T00:42:59;18.13;;;8.85;;
42200;SDS011;27869;51.442;7.540;2022-08-19T00:45:27;16.50;;;8.48;;
42200;SDS011;27869;51.442;7.540;2022-08-19T00:47:56;16.92;;;7.90;;
42200;SDS011;27869;51.442;7.540;2022-08-19T00:50:23;17.80;;;7.88;;
42200;SDS011;27869;51.442;7.540;2022-08-19T00:52:51;15.18;;;7.70;;
42200;SDS011;27869;51.442;7.540;2022-08-19T00:55:20;15.75;;;7.45;;
42200;SDS011;27869;51.442;7.540;2022-08-19T00:57:51;17.20;;;7.85;;
42200;SDS011;27869;51.442;7.540;2022-08-19T01:00:23;17.42;;;8.13;;
42200;SDS011;27869;51.442;7.540;2022-08-19T01:02:53;16.52;;;7.28;;
42200;SDS011;27869;51.442;7.540;2022-08-19T01:05:21;17.92;;;8.02;;
42200;SDS011;27869;51.442;7.540;2022-08-19T01:07:54;16.60;;;7.30;;
42200;SDS011;27869;51.442;7.540;2022-08-19T01:10:23;18.38;;;7.50;;
42200;SDS011;27869;51.442;7.540;2022-08-19T01:12:52;15.55;;;7.60;;
42200;SDS011;27869;51.442;7.540;2022-08-19T01:15:23;18.45;;;7.63;;
42200;SDS011;27869;51.442;7.540;2022-08-19T01:17:54;18.80;;;7.28;;
42200;SDS011;27869;51.442;7.540;2022-08-19T01:20:22;14.85;;;7.25;;
42200;SDS011;27869;51.442;7.540;2022-08-19T01:22:52;14.85;;;6.88;;
42200;SDS011;27869;51.442;7.540;2022-08-19T01:25:21;15.55;;;7.45;;
42200;SDS011;27869;51.442;7.540;2022-08-19T01:27:52;17.20;;;7.85;;
42200;SDS011;27869;51.442;7.540;2022-08-19T01:30:21;14.07;;;6.68;;
42200;SDS011;27869;51.442;7.540;2022-08-19T01:32:53;14.77;;;7.40;;
42200;SDS011;27869;51.442;7.540;2022-08-19T01:35:21;18.58;;;7.88;;
42200;SDS011;27869;51.442;7.540;2022-08-19T01:37:54;16.00;;;7.05;;
42200;SDS011;27869;51.442;7.540;2022-08-19T01:40:24;16.38;;;7.70;;
42200;SDS011;27869;51.442;7.540;2022-08-19T01:42:53;17.17;;;8.32;;
42200;SDS011;27869;51.442;7.540;2022-08-19T01:45:22;17.27;;;9.02;;
42200;SDS011;27869;51.442;7.540;2022-08-19T01:47:50;17.10;;;8.27;;
42200;SDS011;27869;51.442;7.540;2022-08-19T01:50:18;17.50;;;8.52;;
42200;SDS011;27869;51.442;7.540;2022-08-19T01:52:45;16.73;;;7.90;;
42200;SDS011;27869;51.442;7.540;2022-08-19T01:55:15;15.13;;;7.55;;
42200;SDS011;27869;51.442;7.540;2022-08-19T01:57:48;17.08;;;7.88;;
42200;SDS011;27869;51.442;7.540;2022-08-19T02:00:18;16.70;;;8.75;;
42200;SDS011;27869;51.442;7.540;2022-08-19T02:02:47;14.90;;;7.13;;
42200;SDS011;27869;51.442;7.540;2022-08-19T02:05:14;14.18;;;7.53;;
42200;SDS011;27869;51.442;7.540;2022-08-19T02:07:46;17.30;;;8.50;;
42200;SDS011;27869;51.442;7.540;2022-08-19T02:10:16;15.80;;;8.02;;
42200;SDS011;27869;51.442;7.540;2022-08-19T02:12:44;16.02;;;8.55;;
42200;SDS011;27869;51.442;7.540;2022-08-19T02:15:11;16.83;;;8.20;;
42200;SDS011;27869;51.442;7.540;2022-08-19T02:17:38;16.13;;;8.27;;
42200;SDS011;27869;51.442;7.540;2022-08-19T02:20:09;16.77;;;8.55;;
42200;SDS011;27869;51.442;7.540;2022-08-19T02:25:06;15.85;;;8.02;;
42200;SDS011;27869;51.442;7.540;2022-08-19T02:27:36;17.60;;;8.32;;
42200;SDS011;27869;51.442;7.540;2022-08-19T02:30:04;16.98;;;8.40;;
42200;SDS011;27869;51.442;7.540;2022-08-19T02:32:33;17.88;;;7.40;;
42200;SDS011;27869;51.442;7.540;2022-08-19T02:35:00;14.63;;;7.55;;
42200;SDS011;27869;51.442;7.540;2022-08-19T02:37:28;18.55;;;9.18;;
42200;SDS011;27869;51.442;7.540;2022-08-19T02:40:12;18.40;;;9.00;;
42200;SDS011;27869;51.442;7.540;2022-08-19T02:42:41;18.58;;;8.25;;
42200;SDS011;27869;51.442;7.540;2022-08-19T02:45:08;15.75;;;7.53;;
42200;SDS011;27869;51.442;7.540;2022-08-19T02:47:35;17.13;;;8.30;;
42200;SDS011;27869;51.442;7.540;2022-08-19T02:50:03;19.90;;;8.25;;
42200;SDS011;27869;51.442;7.540;2022-08-19T02:52:31;17.73;;;8.35;;
42200;SDS011;27869;51.442;7.540;2022-08-19T02:54:59;17.55;;;8.10;;
42200;SDS011;27869;51.442;7.540;2022-08-19T02:57:26;18.15;;;8.88;;
42200;SDS011;27869;51.442;7.540;2022-08-19T02:59:55;18.58;;;7.95;;
42200;SDS011;27869;51.442;7.540;2022-08-19T03:02:22;17.23;;;8.25;;
42200;SDS011;27869;51.442;7.540;2022-08-19T03:04:49;20.05;;;8.45;;
42200;SDS011;27869;51.442;7.540;2022-08-19T03:07:17;17.05;;;8.20;;
42200;SDS011;27869;51.442;7.540;2022-08-19T03:09:44;15.75;;;7.57;;
42200;SDS011;27869;51.442;7.540;2022-08-19T03:12:11;17.67;;;7.53;;
42200;SDS011;27869;51.442;7.540;2022-08-19T03:14:39;16.23;;;7.93;;
42200;SDS011;27869;51.442;7.540;2022-08-19T03:17:07;14.35;;;6.82;;
42200;SDS011;27869;51.442;7.540;2022-08-19T03:19:34;14.70;;;7.65;;
42200;SDS011;27869;51.442;7.540;2022-08-19T03:22:01;18.48;;;8.10;;
42200;SDS011;27869;51.442;7.540;2022-08-19T03:24:30;18.30;;;7.93;;
42200;SDS011;27869;51.442;7.540;2022-08-19T03:26:57;17.25;;;7.43;;
42200;SDS011;27869;51.442;7.540;2022-08-19T03:29:25;16.42;;;7.72;;
42200;SDS011;27869;51.442;7.540;2022-08-19T03:31:53;15.40;;;8.07;;
42200;SDS011;27869;51.442;7.540;2022-08-19T03:34:22;18.27;;;8.40;;
42200;SDS011;27869;51.442;7.540;2022-08-19T03:36:51;16.88;;;8.43;;
42200;SDS011;27869;51.442;7.540;2022-08-19T03:39:18;16.20;;;7.78;;
42200;SDS011;27869;51.442;7.540;2022-08-19T03:41:46;18.38;;;7.65;;
42200;SDS011;27869;51.442;7.540;2022-08-19T03:44:16;15.27;;;7.90;;
42200;SDS011;27869;51.442;7.540;2022-08-19T03:46:44;16.52;;;7.95;;
42200;SDS011;27869;51.442;7.540;2022-08-19T03:49:13;17.00;;;8.00;;
42200;SDS011;27869;51.442;7.540;2022-08-19T03:51:41;20.05;;;8.35;;
42200;SDS011;27869;51.442;7.540;2022-08-19T03:54:10;19.88;;;8.65;;
42200;SDS011;27869;51.442;7.540;2022-08-19T03:56:38;19.65;;;8.38;;
42200;SDS011;27869;51.442;7.540;2022-08-19T03:59:08;16.85;;;7.75;;
42200;SDS011;27869;51.442;7.540;2022-08-19T04:01:36;16.17;;;8.55;;
42200;SDS011;27869;51.442;7.540;2022-08-19T04:04:03;17.23;;;9.02;;
42200;SDS011;27869;51.442;7.540;2022-08-19T04:06:31;19.10;;;9.00;;
42200;SDS011;27869;51.442;7.540;2022-08-19T04:09:02;21.30;;;9.75;;
42200;SDS011;27869;51.442;7.540;2022-08-19T04:11:33;16.90;;;8.45;;
42200;SDS011;27869;51.442;7.540;2022-08-19T04:14:01;18.20;;;8.55;;
42200;SDS011;27869;51.442;7.540;2022-08-19T04:16:28;17.48;;;9.02;;
42200;SDS011;27869;51.442;7.540;2022-08-19T04:18:55;19.20;;;9.15;;
42200;SDS011;27869;51.442;7.540;2022-08-19T04:21:24;19.17;;;9.25;;
42200;SDS011;27869;51.442;7.540;2022-08-19T04:26:21;19.40;;;9.05;;
42200;SDS011;27869;51.442;7.540;2022-08-19T04:28:49;19.05;;;9.73;;
42200;SDS011;27869;51.442;7.540;2022-08-19T04:31:19;20.52;;;9.07;;
42200;SDS011;27869;51.442;7.540;2022-08-19T04:33:47;17.95;;;9.27;;
42200;SDS011;27869;51.442;7.540;2022-08-19T04:36:16;20.65;;;10.68;;
42200;SDS011;27869;51.442;7.540;2022-08-19T04:38:45;21.20;;;10.10;;
42200;SDS011;27869;51.442;7.540;2022-08-19T04:41:12;19.63;;;10.23;;
42200;SDS011;27869;51.442;7.540;2022-08-19T04:43:58;20.88;;;10.88;;
42200;SDS011;27869;51.442;7.540;2022-08-19T04:46:25;23.60;;;10.68;;
42200;SDS011;27869;51.442;7.540;2022-08-19T04:48:54;20.98;;;11.15;;
42200;SDS011;27869;51.442;7.540;2022-08-19T04:51:22;20.10;;;10.52;;
42200;SDS011;27869;51.442;7.540;2022-08-19T04:53:49;23.30;;;10.50;;
42200;SDS011;27869;51.442;7.540;2022-08-19T04:56:17;16.88;;;9.25;;
42200;SDS011;27869;51.442;7.540;2022-08-19T04:58:47;19.83;;;10.32;;
42200;SDS011;27869;51.442;7.540;2022-08-19T05:01:18;21.38;;;9.27;;
42200;SDS011;27869;51.442;7.540;2022-08-19T05:03:47;19.05;;;10.02;;
42200;SDS011;27869;51.442;7.540;2022-08-19T05:06:15;22.70;;;10.38;;
42200;SDS011;27869;51.442;7.540;2022-08-19T05:08:43;19.98;;;10.65;;
42200;SDS011;27869;51.442;7.540;2022-08-19T05:11:11;19.20;;;9.77;;
42200;SDS011;27869;51.442;7.540;2022-08-19T05:13:40;21.48;;;10.82;;
42200;SDS011;27869;51.442;7.540;2022-08-19T05:16:09;22.15;;;11.25;;
42200;SDS011;27869;51.442;7.540;2022-08-19T05:18:38;22.00;;;11.05;;
42200;SDS011;27869;51.442;7.540;2022-08-19T05:21:23;22.30;;;11.52;;
42200;SDS011;27869;51.442;7.540;2022-08-19T05:24:08;20.75;;;10.98;;
42200;SDS011;27869;51.442;7.540;2022-08-19T05:26:36;20.45;;;11.45;;
42200;SDS011;27869;51.442;7.540;2022-08-19T05:29:03;22.08;;;10.95;;
42200;SDS011;27869;51.442;7.540;2022-08-19T05:31:30;21.95;;;11.90;;
42200;SDS011;27869;51.442;7.540;2022-08-19T05:33:59;24.80;;;12.32;;
42200;SDS011;27869;51.442;7.540;2022-08-19T05:36:27;24.27;;;12.65;;
42200;SDS011;27869;51.442;7.540;2022-08-19T05:38:54;24.10;;;13.00;;
42200;SDS011;27869;51.442;7.540;2022-08-19T05:41:22;26.10;;;13.32;;
42200;SDS011;27869;51.442;7.540;2022-08-19T05:43:55;30.50;;;13.95;;
42200;SDS011;27869;51.442;7.540;2022-08-19T05:46:22;24.73;;;14.15;;
42200;SDS011;27869;51.442;7.540;2022-08-19T05:48:49;32.15;;;14.45;;
42200;SDS011;27869;51.442;7.540;2022-08-19T05:51:18;35.65;;;15.18;;
42200;SDS011;27869;51.442;7.540;2022-08-19T05:53:44;27.15;;;14.75;;
42200;SDS011;27869;51.442;7.540;2022-08-19T05:56:12;29.08;;;15.13;;
42200;SDS011;27869;51.442;7.540;2022-08-19T05:58:42;31.40;;;14.82;;
42200;SDS011;27869;51.442;7.540;2022-08-19T06:01:11;29.75;;;14.77;;
42200;SDS011;27869;51.442;7.540;2022-08-19T06:03:40;29.60;;;14.65;;
42200;SDS011;27869;51.442;7.540;2022-08-19T06:06:09;27.83;;;15.05;;
42200;SDS011;27869;51.442;7.540;2022-08-19T06:08:39;31.50;;;15.65;;
42200;SDS011;27869;51.442;7.540;2022-08-19T06:11:12;25.90;;;14.50;;
42200;SDS011;27869;51.442;7.540;2022-08-19T06:13:41;27.05;;;14.55;;
42200;SDS011;27869;51.442;7.540;2022-08-19T06:16:10;27.45;;;14.43;;
42200;SDS011;27869;51.442;7.540;2022-08-19T06:18:37;23.98;;;13.63;;
42200;SDS011;27869;51.442;7.540;2022-08-19T06:21:04;31.23;;;15.23;;
42200;SDS011;27869;51.442;7.540;2022-08-19T06:23:31;27.02;;;14.35;;
42200;SDS011;27869;51.442;7.540;2022-08-19T06:26:01;26.63;;;14.88;;
42200;SDS011;27869;51.442;7.540;2022-08-19T06:28:28;23.42;;;13.73;;
42200;SDS011;27869;51.442;7.540;2022-08-19T06:30:55;29.40;;;15.15;;
42200;SDS011;27869;51.442;7.540;2022-08-19T06:33:22;26.77;;;14.45;;
42200;SDS011;27869;51.442;7.540;2022-08-19T06:35:49;27.83;;;15.20;;
42200;SDS011;27869;51.442;7.540;2022-08-19T06:38:16;28.17;;;15.23;;
42200;SDS011;27869;51.442;7.540;2022-08-19T06:40:43;28.70;;;15.25;;
42200;SDS011;27869;51.442;7.540;2022-08-19T06:43:11;28.10;;;15.18;;
42200;SDS011;27869;51.442;7.540;2022-08-19T06:45:40;25.42;;;14.15;;
42200;SDS011;27869;51.442;7.540;2022-08-19T06:48:07;28.13;;;14.40;;
42200;SDS011;27869;51.442;7.540;2022-08-19T06:50:34;27.17;;;14.88;;
42200;SDS011;27869;51.442;7.540;2022-08-19T06:53:01;28.05;;;14.48;;
42200;SDS011;27869;51.442;7.540;2022-08-19T06:57:57;31.77;;;15.00;;
42200;SDS011;27869;51.442;7.540;2022-08-19T07:00:28;26.85;;;14.70;;
42200;SDS011;27869;51.442;7.540;2022-08-19T07:02:55;30.83;;;15.35;;
42200;SDS011;27869;51.442;7.540;2022-08-19T07:05:23;28.02;;;14.80;;
42200;SDS011;27869;51.442;7.540;2022-08-19T07:07:50;26.85;;;14.60;;
42200;SDS011;27869;51.442;7.540;2022-08-19T07:10:17;32.25;;;14.88;;
42200;SDS011;27869;51.442;7.540;2022-08-19T07:12:45;29.10;;;15.23;;
42200;SDS011;27869;51.442;7.540;2022-08-19T07:15:12;27.38;;;15.15;;
42200;SDS011;27869;51.442;7.540;2022-08-19T07:17:42;26.67;;;13.93;;
42200;SDS011;27869;51.442;7.540;2022-08-19T07:20:09;28.13;;;14.60;;
42200;SDS011;27869;51.442;7.540;2022-08-19T07:22:37;31.05;;;14.02;;
42200;SDS011;27869;51.442;7.540;2022-08-19T07:25:05;29.70;;;14.43;;
42200;SDS011;27869;51.442;7.540;2022-08-19T07:27:34;30.45;;;14.27;;
42200;SDS011;27869;51.442;7.540;2022-08-19T07:30:02;34.20;;;14.85;;
42200;SDS011;27869;51.442;7.540;2022-08-19T07:32:30;29.55;;;15.45;;
42200;SDS011;27869;51.442;7.540;2022-08-19T07:34:58;25.70;;;14.10;;
42200;SDS011;27869;51.442;7.540;2022-08-19T07:37:28;27.92;;;14.18;;
42200;SDS011;27869;51.442;7.540;2022-08-19T07:39:55;27.35;;;12.70;;
42200;SDS011;27869;51.442;7.540;2022-08-19T07:42:21;25.50;;;11.63;;
42200;SDS011;27869;51.442;7.540;2022-08-19T07:44:48;27.65;;;13.35;;
42200;SDS011;27869;51.442;7.540;2022-08-19T07:47:15;25.27;;;13.45;;
42200;SDS011;27869;51.442;7.540;2022-08-19T07:49:43;22.35;;;12.15;;
42200;SDS011;27869;51.442;7.540;2022-08-19T07:52:11;24.15;;;13.05;;
42200;SDS011;27869;51.442;7.540;2022-08-19T07:54:38;28.95;;;10.98;;
42200;SDS011;27869;51.442;7.540;2022-08-19T07:57:06;22.75;;;11.15;;
42200;SDS011;27869;51.442;7.540;2022-08-19T07:59:33;25.05;;;12.10;;
42200;SDS011;27869;51.442;7.540;2022-08-19T08:02:00;26.45;;;12.32;;
42200;SDS011;27869;51.442;7.540;2022-08-19T08:04:28;19.77;;;9.93;;
42200;SDS011;27869;51.442;7.540;2022-08-19T08:07:15;21.50;;;10.43;;
42200;SDS011;27869;51.442;7.540;2022-08-19T08:10:00;24.52;;;10.35;;
42200;SDS011;27869;51.442;7.540;2022-08-19T08:12:29;22.13;;;11.27;;
42200;SDS011;27869;51.442;7.540;2022-08-19T08:14:59;20.23;;;10.13;;
42200;SDS011;27869;51.442;7.540;2022-08-19T08:17:28;19.88;;;8.63;;
42200;SDS011;27869;51.442;7.540;2022-08-19T08:19:55;17.40;;;7.75;;
42200;SDS011;27869;51.442;7.540;2022-08-19T08:22:24;16.83;;;6.63;;
42200;SDS011;27869;51.442;7.540;2022-08-19T08:25:10;16.98;;;7.68;;
42200;SDS011;27869;51.442;7.540;2022-08-19T08:27:40;15.25;;;6.30;;
42200;SDS011;27869;51.442;7.540;2022-08-19T08:30:08;14.95;;;7.05;;
42200;SDS011;27869;51.442;7.540;2022-08-19T08:32:36;16.63;;;6.35;;
42200;SDS011;27869;51.442;7.540;2022-08-19T08:35:04;19.90;;;6.40;;
42200;SDS011;27869;51.442;7.540;2022-08-19T08:37:33;17.35;;;7.45;;
42200;SDS011;27869;51.442;7.540;2022-08-19T08:42:32;16.63;;;6.93;;
42200;SDS011;27869;51.442;7.540;2022-08-19T08:45:04;17.85;;;7.40;;
42200;SDS011;27869;51.442;7.540;2022-08-19T08:47:41;16.92;;;7.63;;
42200;SDS011;27869;51.442;7.540;2022-08-19T08:50:13;18.25;;;7.70;;
42200;SDS011;27869;51.442;7.540;2022-08-19T08:52:47;19.30;;;8.35;;
42200;SDS011;27869;51.442;7.540;2022-08-19T08:55:19;16.77;;;8.35;;
42200;SDS011;27869;51.442;7.540;2022-08-19T08:57:50;18.42;;;7.85;;
42200;SDS011;27869;51.442;7.540;2022-08-19T09:00:21;18.55;;;7.68;;
42200;SDS011;27869;51.442;7.540;2022-08-19T09:02:51;17.75;;;7.47;;
42200;SDS011;27869;51.442;7.540;2022-08-19T09:05:19;18.13;;;6.53;;
42200;SDS011;27869;51.442;7.540;2022-08-19T09:07:50;15.10;;;6.85;;
42200;SDS011;27869;51.442;7.540;2022-08-19T09:10:25;18.02;;;7.82;;
42200;SDS011;27869;51.442;7.540;2022-08-19T09:13:06;14.93;;;6.97;;
42200;SDS011;27869;51.442;7.540;2022-08-19T09:15:42;14.07;;;6.70;;
42200;SDS011;27869;51.442;7.540;2022-08-19T09:18:10;14.73;;;6.78;;
42200;SDS011;27869;51.442;7.540;2022-08-19T09:20:38;15.52;;;6.53;;
42200;SDS011;27869;51.442;7.540;2022-08-19T09:23:06;15.15;;;7.03;;
42200;SDS011;27869;51.442;7.540;2022-08-19T09:25:34;13.82;;;6.45;;
42200;SDS011;27869;51.442;7.540;2022-08-19T09:28:01;16.50;;;7.10;;
42200;SDS011;27869;51.442;7.540;2022-08-19T09:30:29;14.93;;;7.07;;
42200;SDS011;27869;51.442;7.540;2022-08-19T09:32:59;18.08;;;7.47;;
42200;SDS011;27869;51.442;7.540;2022-08-19T09:35:28;17.50;;;7.65;;
42200;SDS011;27869;51.442;7.540;2022-08-19T09:40:24;16.70;;;7.93;;
42200;SDS011;27869;51.442;7.540;2022-08-19T09:42:53;15.25;;;7.43;;
42200;SDS011;27869;51.442;7.540;2022-08-19T09:45:22;19.95;;;7.93;;
42200;SDS011;27869;51.442;7.540;2022-08-19T09:47:50;14.60;;;7.50;;
42200;SDS011;27869;51.442;7.540;2022-08-19T09:52:44;14.73;;;7.97;;
42200;SDS011;27869;51.442;7.540;2022-08-19T09:55:12;14.32;;;6.93;;
42200;SDS011;27869;51.442;7.540;2022-08-19T09:57:40;16.50;;;6.93;;
42200;SDS011;27869;51.442;7.540;2022-08-19T10:00:08;14.05;;;6.38;;
42200;SDS011;27869;51.442;7.540;2022-08-19T10:02:36;17.33;;;6.70;;
42200;SDS011;27869;51.442;7.540;2022-08-19T10:05:03;17.10;;;7.55;;
42200;SDS011;27869;51.442;7.540;2022-08-19T10:07:48;15.45;;;7.25;;
42200;SDS011;27869;51.442;7.540;2022-08-19T10:10:15;15.63;;;6.55;;
42200;SDS011;27869;51.442;7.540;2022-08-19T10:12:44;16.75;;;7.88;;
42200;SDS011;27869;51.442;7.540;2022-08-19T10:15:12;16.83;;;7.47;;
42200;SDS011;27869;51.442;7.540;2022-08-19T10:17:40;16.42;;;7.75;;
42200;SDS011;27869;51.442;7.540;2022-08-19T10:20:07;18.42;;;9.18;;
42200;SDS011;27869;51.442;7.540;2022-08-19T10:22:34;17.55;;;8.20;;
42200;SDS011;27869;51.442;7.540;2022-08-19T10:25:03;18.23;;;9.68;;
42200;SDS011;27869;51.442;7.540;2022-08-19T10:27:31;18.95;;;11.13;;
42200;SDS011;27869;51.442;7.540;2022-08-19T10:29:59;19.42;;;9.90;;
42200;SDS011;27869;51.442;7.540;2022-08-19T10:32:26;17.58;;;9.70;;
42200;SDS011;27869;51.442;7.540;2022-08-19T10:34:54;17.17;;;8.15;;
42200;SDS011;27869;51.442;7.540;2022-08-19T10:37:22;22.83;;;11.93;;
42200;SDS011;27869;51.442;7.540;2022-08-19T10:39:49;20.02;;;11.80;;
42200;SDS011;27869;51.442;7.540;2022-08-19T10:42:16;23.05;;;13.68;;
42200;SDS011;27869;51.442;7.540;2022-08-19T10:44:43;20.35;;;12.82;;
42200;SDS011;27869;51.442;7.540;2022-08-19T10:47:14;17.60;;;10.98;;
42200;SDS011;27869;51.442;7.540;2022-08-19T10:49:41;18.20;;;8.32;;
42200;SDS011;27869;51.442;7.540;2022-08-19T10:52:25;16.30;;;8.73;;
42200;SDS011;27869;51.442;7.540;2022-08-19T10:55:02;17.48;;;8.13;;
42200;SDS011;27869;51.442;7.540;2022-08-19T10:57:48;15.95;;;6.60;;
42200;SDS011;27869;51.442;7.540;2022-08-19T11:00:17;13.95;;;6.57;;
42200;SDS011;27869;51.442;7.540;2022-08-19T11:02:47;13.55;;;6.35;;
42200;SDS011;27869;51.442;7.540;2022-08-19T11:05:14;15.07;;;7.30;;
42200;SDS011;27869;51.442;7.540;2022-08-19T11:12:38;21.70;;;13.88;;
42200;SDS011;27869;51.442;7.540;2022-08-19T11:15:06;22.17;;;13.55;;
42200;SDS011;27869;51.442;7.540;2022-08-19T11:17:36;20.20;;;11.32;;
42200;SDS011;27869;51.442;7.540;2022-08-19T11:20:07;20.63;;;11.48;;
42200;SDS011;27869;51.442;7.540;2022-08-19T11:22:35;20.88;;;10.43;;
42200;SDS011;27869;51.442;7.540;2022-08-19T11:25:02;17.38;;;9.27;;
42200;SDS011;27869;51.442;7.540;2022-08-19T11:27:29;17.13;;;8.63;;
42200;SDS011;27869;51.442;7.540;2022-08-19T11:29:56;16.58;;;8.15;;
42200;SDS011;27869;51.442;7.540;2022-08-19T11:32:23;15.32;;;7.45;;
42200;SDS011;27869;51.442;7.540;2022-08-19T11:34:50;15.57;;;7.25;;
42200;SDS011;27869;51.442;7.540;2022-08-19T11:37:19;14.52;;;6.70;;
42200;SDS011;27869;51.442;7.540;2022-08-19T11:39:45;15.32;;;7.38;;
42200;SDS011;27869;51.442;7.540;2022-08-19T11:42:12;16.23;;;7.90;;
42200;SDS011;27869;51.442;7.540;2022-08-19T11:44:57;15.20;;;6.93;;
42200;SDS011;27869;51.442;7.540;2022-08-19T11:47:24;14.73;;;5.90;;
42200;SDS011;27869;51.442;7.540;2022-08-19T11:49:51;15.60;;;7.10;;
42200;SDS011;27869;51.442;7.540;2022-08-19T11:52:19;15.63;;;6.38;;
42200;SDS011;27869;51.442;7.540;2022-08-19T11:54:46;15.02;;;7.47;;
42200;SDS011;27869;51.442;7.540;2022-08-19T11:57:13;15.02;;;6.53;;
42200;SDS011;27869;51.442;7.540;2022-08-19T11:59:42;15.07;;;6.78;;
42200;SDS011;27869;51.442;7.540;2022-08-19T12:02:13;14.45;;;6.45;;
42200;SDS011;27869;51.442;7.540;2022-08-19T12:04:40;14.10;;;5.63;;
42200;SDS011;27869;51.442;7.540;2022-08-19T12:07:07;11.85;;;5.20;;
42200;SDS011;27869;51.442;7.540;2022-08-19T12:09:35;9.88;;;3.53;;
42200;SDS011;27869;51.442;7.540;2022-08-19T12:12:04;13.32;;;4.65;;
42200;SDS011;27869;51.442;7.540;2022-08-19T12:14:31;12.52;;;4.63;;
42200;SDS011;27869;51.442;7.540;2022-08-19T12:16:58;13.55;;;5.80;;
42200;SDS011;27869;51.442;7.540;2022-08-19T12:19:27;14.85;;;7.05;;
42200;SDS011;27869;51.442;7.540;2022-08-19T12:21:57;14.85;;;6.32;;
42200;SDS011;27869;51.442;7.540;2022-08-19T12:24:26;17.08;;;7.82;;
42200;SDS011;27869;51.442;7.540;2022-08-19T12:26:55;15.00;;;7.15;;
42200;SDS011;27869;51.442;7.540;2022-08-19T12:29:23;17.65;;;8.43;;
42200;SDS011;27869;51.442;7.540;2022-08-19T12:31:53;18.55;;;8.43;;
42200;SDS011;27869;51.442;7.540;2022-08-19T12:34:26;16.33;;;9.07;;
42200;SDS011;27869;51.442;7.540;2022-08-19T12:36:55;18.58;;;10.00;;
42200;SDS011;27869;51.442;7.540;2022-08-19T12:39:22;16.65;;;9.10;;
42200;SDS011;27869;51.442;7.540;2022-08-19T12:41:49;14.65;;;8.35;;
42200;SDS011;27869;51.442;7.540;2022-08-19T12:44:18;18.70;;;8.55;;
42200;SDS011;27869;51.442;7.540;2022-08-19T12:46:45;16.40;;;9.10;;
42200;SDS011;27869;51.442;7.540;2022-08-19T12:49:14;15.77;;;7.80;;
42200;SDS011;27869;51.442;7.540;2022-08-19T12:51:41;18.15;;;8.73;;
42200;SDS011;27869;51.442;7.540;2022-08-19T12:54:08;19.02;;;7.57;;
42200;SDS011;27869;51.442;7.540;2022-08-19T12:56:36;17.58;;;8.18;;
42200;SDS011;27869;51.442;7.540;2022-08-19T12:59:03;16.30;;;7.20;;
42200;SDS011;27869;51.442;7.540;2022-08-19T13:01:34;14.05;;;7.03;;
42200;SDS011;27869;51.442;7.540;2022-08-19T13:04:01;18.27;;;8.48;;
42200;SDS011;27869;51.442;7.540;2022-08-19T13:06:28;16.05;;;8.02;;
42200;SDS011;27869;51.442;7.540;2022-08-19T13:08:55;16.60;;;7.45;;
42200;SDS011;27869;51.442;7.540;2022-08-19T13:11:24;14.48;;;6.95;;
42200;SDS011;27869;51.442;7.540;2022-08-19T13:13:51;16.42;;;7.75;;
42200;SDS011;27869;51.442;7.540;2022-08-19T13:16:20;14.18;;;6.78;;
42200;SDS011;27869;51.442;7.540;2022-08-19T13:18:48;13.88;;;5.90;;
42200;SDS011;27869;51.442;7.540;2022-08-19T13:21:17;13.98;;;6.50;;
42200;SDS011;27869;51.442;7.540;2022-08-19T13:23:46;15.38;;;6.50;;
42200;SDS011;27869;51.442;7.540;2022-08-19T13:26:13;13.35;;;6.57;;
42200;SDS011;27869;51.442;7.540;2022-08-19T13:28:40;12.32;;;6.10;;
42200;SDS011;27869;51.442;7.540;2022-08-19T13:31:26;12.82;;;5.97;;
42200;SDS011;27869;51.442;7.540;2022-08-19T13:34:13;17.50;;;6.75;;
42200;SDS011;27869;51.442;7.540;2022-08-19T13:36:41;13.02;;;6.00;;
42200;SDS011;27869;51.442;7.540;2022-08-19T13:39:08;13.27;;;6.63;;
42200;SDS011;27869;51.442;7.540;2022-08-19T13:41:35;15.35;;;6.53;;
42200;SDS011;27869;51.442;7.540;2022-08-19T13:44:03;13.15;;;6.28;;
42200;SDS011;27869;51.442;7.540;2022-08-19T13:46:31;14.05;;;5.90;;
42200;SDS011;27869;51.442;7.540;2022-08-19T13:48:58;13.38;;;5.68;;
42200;SDS011;27869;51.442;7.540;2022-08-19T13:51:26;12.18;;;5.32;;
42200;SDS011;27869;51.442;7.540;2022-08-19T13:53:53;13.57;;;5.82;;
42200;SDS011;27869;51.442;7.540;2022-08-19T13:56:20;12.50;;;5.47;;
42200;SDS011;27869;51.442;7.540;2022-08-19T13:58:47;11.88;;;5.20;;
42200;SDS011;27869;51.442;7.540;2022-08-19T14:01:18;13.98;;;5.15;;
42200;SDS011;27869;51.442;7.540;2022-08-19T14:03:46;13.70;;;5.18;;
42200;SDS011;27869;51.442;7.540;2022-08-19T14:06:13;11.23;;;4.30;;
42200;SDS011;27869;51.442;7.540;2022-08-19T14:08:43;12.95;;;4.47;;
42200;SDS011;27869;51.442;7.540;2022-08-19T14:11:10;11.05;;;4.18;;
42200;SDS011;27869;51.442;7.540;2022-08-19T14:13:37;10.90;;;3.78;;
42200;SDS011;27869;51.442;7.540;2022-08-19T14:16:06;11.50;;;4.30;;
42200;SDS011;27869;51.442;7.540;2022-08-19T14:18:34;11.82;;;5.07;;
42200;SDS011;27869;51.442;7.540;2022-08-19T14:21:02;12.45;;;4.32;;
42200;SDS011;27869;51.442;7.540;2022-08-19T14:23:29;12.18;;;4.22;;
42200;SDS011;27869;51.442;7.540;2022-08-19T14:26:04;12.00;;;4.90;;
42200;SDS011;27869;51.442;7.540;2022-08-19T14:28:34;10.68;;;3.90;;
42200;SDS011;27869;51.442;7.540;2022-08-19T14:31:01;12.32;;;4.25;;
42200;SDS011;27869;51.442;7.540;2022-08-19T14:33:28;10.57;;;3.92;;
42200;SDS011;27869;51.442;7.540;2022-08-19T14:35:55;11.32;;;4.20;;
42200;SDS011;27869;51.442;7.540;2022-08-19T14:38:21;12.63;;;3.78;;
42200;SDS011;27869;51.442;7.540;2022-08-19T14:40:48;11.25;;;4.22;;
42200;SDS011;27869;51.442;7.540;2022-08-19T14:43:18;11.10;;;4.30;;
42200;SDS011;27869;51.442;7.540;2022-08-19T14:45:45;12.70;;;4.05;;
42200;SDS011;27869;51.442;7.540;2022-08-19T14:48:12;12.63;;;4.22;;
42200;SDS011;27869;51.442;7.540;2022-08-19T14:50:39;11.43;;;4.13;;
42200;SDS011;27869;51.442;7.540;2022-08-19T14:53:06;11.18;;;3.90;;
42200;SDS011;27869;51.442;7.540;2022-08-19T15:00:29;10.50;;;4.00;;
42200;SDS011;27869;51.442;7.540;2022-08-19T15:02:56;13.88;;;4.20;;
42200;SDS011;27869;51.442;7.540;2022-08-19T15:05:23;11.90;;;4.07;;